Overview Statistics Trail Chart Weather Telemetry Raw packets
 

This is the latest recevied weather packets stored in our database for station/object N7ZEF. If no packets are shown the sender has not sent any weather packets the latest 10 day(s).

<< 29 30 31 32 33 34 35 >>
Time Temp. Humidity Pressure Rain* Wind** Luminosity Snow
1777730790 2.22° C 68% 1026.7 hPa 0 mm - - -
1777730189 1.67° C 70% 1026.5 hPa 0 mm - - -
1777729587 1.11° C 75% 1026.4 hPa 0 mm - - -
1777728986 0° C 78% 1026.4 hPa 0 mm - - -
1777728385 -0.56° C 80% 1026.3 hPa 0 mm - - -
1777727783 -1.11° C 82% 1026.3 hPa 0 mm - - -
1777727182 -1.67° C 83% 1026 hPa 0 mm - - -
1777726580 -2.22° C 84% 1026 hPa 0 mm - - -
1777725979 -2.22° C 84% 1025.8 hPa 0 mm - - -
1777725378 -2.22° C 84% 1025.6 hPa 0 mm - - -
1777724776 -2.22° C 84% 1025.6 hPa 0 mm - - -
1777724175 -2.22° C 83% 1025.6 hPa 0 mm - - -
1777723574 -2.22° C 83% 1025.6 hPa 0 mm - - -
1777722972 -2.22° C 82% 1025.5 hPa 0 mm - - -
1777722371 -2.22° C 80% 1025.4 hPa 0 mm - - -
1777721769 -2.22° C 79% 1025.4 hPa 0 mm - - -
1777721168 -2.22° C 79% 1025.4 hPa 0 mm - - -
1777720567 -2.22° C 78% 1025.4 hPa 0 mm - - -
1777719965 -1.67° C 78% 1025.3 hPa 0 mm - - -
1777719364 -1.67° C 77% 1025.3 hPa 0 mm - - -
1777718763 -1.11° C 76% 1025.4 hPa 0 mm - - -
1777718161 -1.11° C 76% 1025.1 hPa 0 mm - - -
1777717560 -1.11° C 75% 1025.1 hPa 0 mm - - -
1777716958 -1.11° C 74% 1025.1 hPa 0 mm - - -
1777716357 -1.11° C 73% 1025 hPa 0 mm - - -

* Rain latest hour (hover to see other rain measurements)
** Current wind speed in m/s (hover to see current wind gust speed)